sensor_id;sensor_type;location;lat;lon;timestamp;P1;durP1;ratioP1;P2;durP2;ratioP2
3068;SDS011;1545;51.728;8.796;2023-07-13T00:01:17;11.83;;;5.10;;
3068;SDS011;1545;51.728;8.796;2023-07-13T00:03:42;13.83;;;4.80;;
3068;SDS011;1545;51.728;8.796;2023-07-13T00:06:08;11.67;;;5.07;;
3068;SDS011;1545;51.728;8.796;2023-07-13T00:08:34;17.30;;;5.67;;
3068;SDS011;1545;51.728;8.796;2023-07-13T00:11:00;9.10;;;5.20;;
3068;SDS011;1545;51.728;8.796;2023-07-13T00:13:27;10.30;;;5.37;;
3068;SDS011;1545;51.728;8.796;2023-07-13T00:15:54;11.13;;;5.47;;
3068;SDS011;1545;51.728;8.796;2023-07-13T00:18:21;13.97;;;5.50;;
3068;SDS011;1545;51.728;8.796;2023-07-13T00:20:47;11.73;;;5.40;;
3068;SDS011;1545;51.728;8.796;2023-07-13T00:23:13;15.63;;;5.57;;
3068;SDS011;1545;51.728;8.796;2023-07-13T00:25:39;10.17;;;5.47;;
3068;SDS011;1545;51.728;8.796;2023-07-13T00:28:04;12.07;;;5.43;;
3068;SDS011;1545;51.728;8.796;2023-07-13T00:30:30;11.70;;;5.33;;
3068;SDS011;1545;51.728;8.796;2023-07-13T00:32:56;13.20;;;5.33;;
3068;SDS011;1545;51.728;8.796;2023-07-13T00:35:21;10.93;;;5.33;;
3068;SDS011;1545;51.728;8.796;2023-07-13T00:37:47;17.00;;;6.30;;
3068;SDS011;1545;51.728;8.796;2023-07-13T00:40:12;13.40;;;5.83;;
3068;SDS011;1545;51.728;8.796;2023-07-13T00:42:39;15.33;;;5.90;;
3068;SDS011;1545;51.728;8.796;2023-07-13T00:47:36;11.77;;;6.23;;
3068;SDS011;1545;51.728;8.796;2023-07-13T00:50:02;14.20;;;5.77;;
3068;SDS011;1545;51.728;8.796;2023-07-13T00:52:31;13.93;;;6.67;;
3068;SDS011;1545;51.728;8.796;2023-07-13T00:54:57;10.10;;;5.90;;
3068;SDS011;1545;51.728;8.796;2023-07-13T00:57:22;19.43;;;7.70;;
3068;SDS011;1545;51.728;8.796;2023-07-13T00:59:50;16.20;;;6.83;;
3068;SDS011;1545;51.728;8.796;2023-07-13T01:02:18;19.10;;;7.33;;
3068;SDS011;1545;51.728;8.796;2023-07-13T01:04:46;13.63;;;6.60;;
3068;SDS011;1545;51.728;8.796;2023-07-13T01:07:12;15.90;;;7.23;;
3068;SDS011;1545;51.728;8.796;2023-07-13T01:09:38;14.57;;;6.80;;
3068;SDS011;1545;51.728;8.796;2023-07-13T01:12:03;15.03;;;7.17;;
3068;SDS011;1545;51.728;8.796;2023-07-13T01:14:29;18.20;;;7.43;;
3068;SDS011;1545;51.728;8.796;2023-07-13T01:16:55;11.40;;;7.00;;
3068;SDS011;1545;51.728;8.796;2023-07-13T01:19:33;16.20;;;7.50;;
3068;SDS011;1545;51.728;8.796;2023-07-13T01:22:06;14.57;;;6.90;;
3068;SDS011;1545;51.728;8.796;2023-07-13T01:24:36;15.23;;;8.33;;
3068;SDS011;1545;51.728;8.796;2023-07-13T01:27:03;14.43;;;7.43;;
3068;SDS011;1545;51.728;8.796;2023-07-13T01:29:31;13.60;;;7.67;;
3068;SDS011;1545;51.728;8.796;2023-07-13T01:31:58;13.77;;;6.73;;
3068;SDS011;1545;51.728;8.796;2023-07-13T01:34:25;24.20;;;7.30;;
3068;SDS011;1545;51.728;8.796;2023-07-13T01:36:51;15.20;;;6.70;;
3068;SDS011;1545;51.728;8.796;2023-07-13T01:39:18;15.97;;;6.70;;
3068;SDS011;1545;51.728;8.796;2023-07-13T01:41:48;15.03;;;6.67;;
3068;SDS011;1545;51.728;8.796;2023-07-13T01:44:13;13.03;;;6.37;;
3068;SDS011;1545;51.728;8.796;2023-07-13T01:46:39;17.10;;;6.13;;
3068;SDS011;1545;51.728;8.796;2023-07-13T01:49:04;11.50;;;5.87;;
3068;SDS011;1545;51.728;8.796;2023-07-13T01:51:30;13.60;;;6.00;;
3068;SDS011;1545;51.728;8.796;2023-07-13T01:53:56;12.50;;;6.07;;
3068;SDS011;1545;51.728;8.796;2023-07-13T01:56:21;14.57;;;5.20;;
3068;SDS011;1545;51.728;8.796;2023-07-13T01:58:47;13.53;;;5.53;;
3068;SDS011;1545;51.728;8.796;2023-07-13T02:01:12;12.97;;;5.40;;
3068;SDS011;1545;51.728;8.796;2023-07-13T02:03:38;10.73;;;5.63;;
3068;SDS011;1545;51.728;8.796;2023-07-13T02:06:04;18.70;;;5.80;;
3068;SDS011;1545;51.728;8.796;2023-07-13T02:08:30;23.87;;;5.60;;
3068;SDS011;1545;51.728;8.796;2023-07-13T02:10:57;17.20;;;5.90;;
3068;SDS011;1545;51.728;8.796;2023-07-13T02:13:23;11.37;;;5.77;;
3068;SDS011;1545;51.728;8.796;2023-07-13T02:15:51;12.70;;;5.87;;
3068;SDS011;1545;51.728;8.796;2023-07-13T02:18:17;13.67;;;5.40;;
3068;SDS011;1545;51.728;8.796;2023-07-13T02:20:43;16.20;;;6.47;;
3068;SDS011;1545;51.728;8.796;2023-07-13T02:23:09;9.53;;;5.47;;
3068;SDS011;1545;51.728;8.796;2023-07-13T02:25:35;15.83;;;5.90;;
3068;SDS011;1545;51.728;8.796;2023-07-13T02:28:00;13.70;;;5.30;;
3068;SDS011;1545;51.728;8.796;2023-07-13T02:30:26;14.90;;;5.17;;
3068;SDS011;1545;51.728;8.796;2023-07-13T02:32:54;11.50;;;5.13;;
3068;SDS011;1545;51.728;8.796;2023-07-13T02:35:20;13.93;;;4.93;;
3068;SDS011;1545;51.728;8.796;2023-07-13T02:37:46;16.93;;;5.40;;
3068;SDS011;1545;51.728;8.796;2023-07-13T02:40:11;14.33;;;4.83;;
3068;SDS011;1545;51.728;8.796;2023-07-13T02:42:37;18.47;;;5.03;;
3068;SDS011;1545;51.728;8.796;2023-07-13T02:45:03;15.30;;;5.80;;
3068;SDS011;1545;51.728;8.796;2023-07-13T02:47:29;10.70;;;5.23;;
3068;SDS011;1545;51.728;8.796;2023-07-13T02:49:56;10.20;;;4.97;;
3068;SDS011;1545;51.728;8.796;2023-07-13T02:52:22;11.97;;;5.20;;
3068;SDS011;1545;51.728;8.796;2023-07-13T02:54:47;11.83;;;5.03;;
3068;SDS011;1545;51.728;8.796;2023-07-13T02:57:13;18.20;;;5.17;;
3068;SDS011;1545;51.728;8.796;2023-07-13T02:59:38;15.73;;;5.20;;
3068;SDS011;1545;51.728;8.796;2023-07-13T03:02:04;11.07;;;5.33;;
3068;SDS011;1545;51.728;8.796;2023-07-13T03:04:29;11.03;;;4.60;;
3068;SDS011;1545;51.728;8.796;2023-07-13T03:06:55;16.07;;;5.57;;
3068;SDS011;1545;51.728;8.796;2023-07-13T03:09:24;20.47;;;4.90;;
3068;SDS011;1545;51.728;8.796;2023-07-13T03:11:52;19.30;;;5.63;;
3068;SDS011;1545;51.728;8.796;2023-07-13T03:14:19;12.73;;;5.23;;
3068;SDS011;1545;51.728;8.796;2023-07-13T03:16:44;14.93;;;5.27;;
3068;SDS011;1545;51.728;8.796;2023-07-13T03:19:10;15.30;;;5.00;;
3068;SDS011;1545;51.728;8.796;2023-07-13T03:21:35;13.40;;;5.60;;
3068;SDS011;1545;51.728;8.796;2023-07-13T03:24:00;15.23;;;4.90;;
3068;SDS011;1545;51.728;8.796;2023-07-13T03:26:26;15.90;;;5.10;;
3068;SDS011;1545;51.728;8.796;2023-07-13T03:28:51;13.97;;;5.03;;
3068;SDS011;1545;51.728;8.796;2023-07-13T03:31:18;13.03;;;4.73;;
3068;SDS011;1545;51.728;8.796;2023-07-13T03:33:45;19.63;;;4.63;;
3068;SDS011;1545;51.728;8.796;2023-07-13T03:36:15;11.23;;;4.57;;
3068;SDS011;1545;51.728;8.796;2023-07-13T03:38:47;18.73;;;4.33;;
3068;SDS011;1545;51.728;8.796;2023-07-13T03:41:14;8.47;;;4.13;;
3068;SDS011;1545;51.728;8.796;2023-07-13T03:43:40;15.50;;;4.53;;
3068;SDS011;1545;51.728;8.796;2023-07-13T03:46:06;13.30;;;4.77;;
3068;SDS011;1545;51.728;8.796;2023-07-13T03:48:31;10.30;;;4.13;;
3068;SDS011;1545;51.728;8.796;2023-07-13T03:50:56;10.10;;;4.30;;
3068;SDS011;1545;51.728;8.796;2023-07-13T03:53:22;13.67;;;4.70;;
3068;SDS011;1545;51.728;8.796;2023-07-13T03:55:47;14.13;;;3.70;;
3068;SDS011;1545;51.728;8.796;2023-07-13T03:58:23;14.17;;;4.17;;
3068;SDS011;1545;51.728;8.796;2023-07-13T04:00:51;19.83;;;4.07;;
3068;SDS011;1545;51.728;8.796;2023-07-13T04:03:17;14.33;;;4.43;;
3068;SDS011;1545;51.728;8.796;2023-07-13T04:05:42;12.00;;;3.80;;
3068;SDS011;1545;51.728;8.796;2023-07-13T04:08:08;13.70;;;3.80;;
3068;SDS011;1545;51.728;8.796;2023-07-13T04:10:33;21.97;;;4.30;;
3068;SDS011;1545;51.728;8.796;2023-07-13T04:12:59;9.87;;;3.80;;
3068;SDS011;1545;51.728;8.796;2023-07-13T04:15:24;8.43;;;3.40;;
3068;SDS011;1545;51.728;8.796;2023-07-13T04:17:51;13.47;;;3.37;;
3068;SDS011;1545;51.728;8.796;2023-07-13T04:20:16;13.80;;;3.57;;
3068;SDS011;1545;51.728;8.796;2023-07-13T04:22:42;7.83;;;3.60;;
3068;SDS011;1545;51.728;8.796;2023-07-13T04:25:07;18.80;;;3.90;;
3068;SDS011;1545;51.728;8.796;2023-07-13T04:27:33;10.40;;;3.50;;
3068;SDS011;1545;51.728;8.796;2023-07-13T04:29:58;14.00;;;3.43;;
3068;SDS011;1545;51.728;8.796;2023-07-13T04:32:24;11.33;;;3.30;;
3068;SDS011;1545;51.728;8.796;2023-07-13T04:34:49;7.60;;;3.13;;
3068;SDS011;1545;51.728;8.796;2023-07-13T04:37:18;9.00;;;3.53;;
3068;SDS011;1545;51.728;8.796;2023-07-13T04:39:43;12.00;;;3.40;;
3068;SDS011;1545;51.728;8.796;2023-07-13T04:42:09;7.90;;;2.80;;
3068;SDS011;1545;51.728;8.796;2023-07-13T04:44:34;8.10;;;3.20;;
3068;SDS011;1545;51.728;8.796;2023-07-13T04:47:00;9.57;;;3.27;;
3068;SDS011;1545;51.728;8.796;2023-07-13T04:49:25;6.77;;;2.60;;
3068;SDS011;1545;51.728;8.796;2023-07-13T04:51:51;15.93;;;3.10;;
3068;SDS011;1545;51.728;8.796;2023-07-13T04:54:16;7.60;;;2.80;;
3068;SDS011;1545;51.728;8.796;2023-07-13T04:56:41;9.50;;;2.73;;
3068;SDS011;1545;51.728;8.796;2023-07-13T04:59:07;13.10;;;2.87;;
3068;SDS011;1545;51.728;8.796;2023-07-13T05:01:32;10.68;;;2.92;;
3068;SDS011;1545;51.728;8.796;2023-07-13T05:03:58;11.60;;;2.33;;
3068;SDS011;1545;51.728;8.796;2023-07-13T05:06:24;17.42;;;2.88;;
3068;SDS011;1545;51.728;8.796;2023-07-13T05:08:50;8.52;;;2.78;;
3068;SDS011;1545;51.728;8.796;2023-07-13T05:11:17;7.05;;;2.80;;
3068;SDS011;1545;51.728;8.796;2023-07-13T05:13:43;8.63;;;2.78;;
3068;SDS011;1545;51.728;8.796;2023-07-13T05:16:09;5.60;;;2.40;;
3068;SDS011;1545;51.728;8.796;2023-07-13T05:18:34;7.97;;;2.30;;
3068;SDS011;1545;51.728;8.796;2023-07-13T05:21:08;6.95;;;2.75;;
3068;SDS011;1545;51.728;8.796;2023-07-13T05:23:35;8.93;;;2.50;;
3068;SDS011;1545;51.728;8.796;2023-07-13T05:26:01;15.02;;;2.72;;
3068;SDS011;1545;51.728;8.796;2023-07-13T05:28:30;8.85;;;2.72;;
3068;SDS011;1545;51.728;8.796;2023-07-13T05:30:57;15.35;;;2.70;;
3068;SDS011;1545;51.728;8.796;2023-07-13T05:33:23;8.38;;;2.63;;
3068;SDS011;1545;51.728;8.796;2023-07-13T05:35:49;9.40;;;2.55;;
3068;SDS011;1545;51.728;8.796;2023-07-13T05:38:14;7.63;;;2.47;;
3068;SDS011;1545;51.728;8.796;2023-07-13T05:40:42;9.60;;;2.65;;
3068;SDS011;1545;51.728;8.796;2023-07-13T05:43:08;7.18;;;3.03;;
3068;SDS011;1545;51.728;8.796;2023-07-13T05:45:34;18.67;;;2.80;;
3068;SDS011;1545;51.728;8.796;2023-07-13T05:48:00;12.40;;;3.15;;
3068;SDS011;1545;51.728;8.796;2023-07-13T05:50:25;5.70;;;2.58;;
3068;SDS011;1545;51.728;8.796;2023-07-13T05:52:51;9.27;;;2.60;;
3068;SDS011;1545;51.728;8.796;2023-07-13T05:55:17;14.10;;;3.33;;
3068;SDS011;1545;51.728;8.796;2023-07-13T05:57:43;10.95;;;2.88;;
3068;SDS011;1545;51.728;8.796;2023-07-13T06:00:08;8.82;;;2.70;;
3068;SDS011;1545;51.728;8.796;2023-07-13T06:02:35;11.63;;;3.00;;
3068;SDS011;1545;51.728;8.796;2023-07-13T06:05:00;12.30;;;2.70;;
3068;SDS011;1545;51.728;8.796;2023-07-13T06:07:26;8.38;;;2.78;;
3068;SDS011;1545;51.728;8.796;2023-07-13T06:09:51;9.10;;;2.78;;
3068;SDS011;1545;51.728;8.796;2023-07-13T06:12:17;8.30;;;2.83;;
3068;SDS011;1545;51.728;8.796;2023-07-13T06:14:42;10.83;;;3.37;;
3068;SDS011;1545;51.728;8.796;2023-07-13T06:17:08;7.83;;;2.70;;
3068;SDS011;1545;51.728;8.796;2023-07-13T06:19:33;15.50;;;3.13;;
3068;SDS011;1545;51.728;8.796;2023-07-13T06:21:59;17.90;;;3.23;;
3068;SDS011;1545;51.728;8.796;2023-07-13T06:24:25;9.27;;;2.83;;
3068;SDS011;1545;51.728;8.796;2023-07-13T06:26:50;12.20;;;3.10;;
3068;SDS011;1545;51.728;8.796;2023-07-13T06:29:16;10.67;;;3.37;;
3068;SDS011;1545;51.728;8.796;2023-07-13T06:31:42;7.87;;;2.80;;
3068;SDS011;1545;51.728;8.796;2023-07-13T06:34:07;12.77;;;3.00;;
3068;SDS011;1545;51.728;8.796;2023-07-13T06:36:33;13.90;;;2.87;;
3068;SDS011;1545;51.728;8.796;2023-07-13T06:38:59;8.20;;;2.60;;
3068;SDS011;1545;51.728;8.796;2023-07-13T06:41:24;11.17;;;3.43;;
3068;SDS011;1545;51.728;8.796;2023-07-13T06:43:53;14.63;;;2.90;;
3068;SDS011;1545;51.728;8.796;2023-07-13T06:46:20;14.27;;;3.17;;
3068;SDS011;1545;51.728;8.796;2023-07-13T06:48:46;8.03;;;2.90;;
3068;SDS011;1545;51.728;8.796;2023-07-13T06:51:13;11.50;;;2.90;;
3068;SDS011;1545;51.728;8.796;2023-07-13T06:53:39;8.97;;;2.80;;
3068;SDS011;1545;51.728;8.796;2023-07-13T06:56:04;10.00;;;3.03;;
3068;SDS011;1545;51.728;8.796;2023-07-13T06:58:30;9.00;;;2.90;;
3068;SDS011;1545;51.728;8.796;2023-07-13T07:00:56;10.70;;;3.00;;
3068;SDS011;1545;51.728;8.796;2023-07-13T07:03:21;10.03;;;2.90;;
3068;SDS011;1545;51.728;8.796;2023-07-13T07:05:47;12.33;;;3.50;;
3068;SDS011;1545;51.728;8.796;2023-07-13T07:08:12;11.00;;;3.40;;
3068;SDS011;1545;51.728;8.796;2023-07-13T07:10:38;12.57;;;3.33;;
3068;SDS011;1545;51.728;8.796;2023-07-13T07:13:05;12.17;;;2.90;;
3068;SDS011;1545;51.728;8.796;2023-07-13T07:15:30;12.90;;;3.30;;
3068;SDS011;1545;51.728;8.796;2023-07-13T07:17:56;8.90;;;2.97;;
3068;SDS011;1545;51.728;8.796;2023-07-13T07:20:22;7.47;;;2.73;;
3068;SDS011;1545;51.728;8.796;2023-07-13T07:22:48;12.13;;;3.13;;
3068;SDS011;1545;51.728;8.796;2023-07-13T07:25:13;11.63;;;3.30;;
3068;SDS011;1545;51.728;8.796;2023-07-13T07:27:39;10.90;;;3.43;;
3068;SDS011;1545;51.728;8.796;2023-07-13T07:30:05;9.23;;;3.20;;
3068;SDS011;1545;51.728;8.796;2023-07-13T07:32:31;8.13;;;2.90;;
3068;SDS011;1545;51.728;8.796;2023-07-13T07:34:57;9.57;;;3.40;;
3068;SDS011;1545;51.728;8.796;2023-07-13T07:37:23;12.77;;;2.67;;
3068;SDS011;1545;51.728;8.796;2023-07-13T07:39:49;15.67;;;3.40;;
3068;SDS011;1545;51.728;8.796;2023-07-13T07:42:15;7.07;;;2.87;;
3068;SDS011;1545;51.728;8.796;2023-07-13T07:44:40;13.40;;;3.10;;
3068;SDS011;1545;51.728;8.796;2023-07-13T07:47:06;14.10;;;3.40;;
3068;SDS011;1545;51.728;8.796;2023-07-13T07:49:32;9.73;;;3.10;;
3068;SDS011;1545;51.728;8.796;2023-07-13T07:51:58;10.43;;;2.97;;
3068;SDS011;1545;51.728;8.796;2023-07-13T07:54:23;16.63;;;3.30;;
3068;SDS011;1545;51.728;8.796;2023-07-13T07:56:49;13.73;;;3.90;;
3068;SDS011;1545;51.728;8.796;2023-07-13T07:59:14;9.03;;;3.30;;
3068;SDS011;1545;51.728;8.796;2023-07-13T08:01:40;19.83;;;3.35;;
3068;SDS011;1545;51.728;8.796;2023-07-13T08:04:05;10.50;;;3.40;;
3068;SDS011;1545;51.728;8.796;2023-07-13T08:06:31;13.88;;;3.20;;
3068;SDS011;1545;51.728;8.796;2023-07-13T08:08:58;12.02;;;3.00;;
3068;SDS011;1545;51.728;8.796;2023-07-13T08:11:24;8.55;;;2.90;;
3068;SDS011;1545;51.728;8.796;2023-07-13T08:13:50;8.95;;;3.00;;
3068;SDS011;1545;51.728;8.796;2023-07-13T08:16:15;8.10;;;2.95;;
3068;SDS011;1545;51.728;8.796;2023-07-13T08:18:41;9.13;;;3.20;;
3068;SDS011;1545;51.728;8.796;2023-07-13T08:21:07;12.73;;;3.63;;
3068;SDS011;1545;51.728;8.796;2023-07-13T08:23:34;13.13;;;3.47;;
3068;SDS011;1545;51.728;8.796;2023-07-13T08:26:00;12.02;;;3.45;;
3068;SDS011;1545;51.728;8.796;2023-07-13T08:28:26;12.85;;;3.50;;
3068;SDS011;1545;51.728;8.796;2023-07-13T08:30:53;11.80;;;3.27;;
3068;SDS011;1545;51.728;8.796;2023-07-13T08:33:18;15.37;;;3.53;;
3068;SDS011;1545;51.728;8.796;2023-07-13T08:35:48;9.83;;;3.20;;
3068;SDS011;1545;51.728;8.796;2023-07-13T08:38:14;16.60;;;3.77;;
3068;SDS011;1545;51.728;8.796;2023-07-13T08:40:41;7.82;;;3.40;;
3068;SDS011;1545;51.728;8.796;2023-07-13T08:43:09;12.55;;;3.67;;
3068;SDS011;1545;51.728;8.796;2023-07-13T08:48:38;9.07;;;3.35;;
3068;SDS011;1545;51.728;8.796;2023-07-13T08:51:16;10.10;;;3.20;;
3068;SDS011;1545;51.728;8.796;2023-07-13T08:53:57;9.95;;;3.55;;
3068;SDS011;1545;51.728;8.796;2023-07-13T08:56:25;9.40;;;3.63;;
3068;SDS011;1545;51.728;8.796;2023-07-13T08:58:57;11.77;;;3.73;;
3068;SDS011;1545;51.728;8.796;2023-07-13T09:04:23;11.00;;;3.73;;
3068;SDS011;1545;51.728;8.796;2023-07-13T09:12:02;7.50;;;3.37;;
3068;SDS011;1545;51.728;8.796;2023-07-13T09:14:41;12.93;;;3.60;;
3068;SDS011;1545;51.728;8.796;2023-07-13T09:17:14;13.85;;;4.18;;
3068;SDS011;1545;51.728;8.796;2023-07-13T09:19:43;16.20;;;4.18;;
3068;SDS011;1545;51.728;8.796;2023-07-13T09:22:18;8.50;;;3.30;;
3068;SDS011;1545;51.728;8.796;2023-07-13T09:27:35;10.30;;;3.25;;
3068;SDS011;1545;51.728;8.796;2023-07-13T09:30:17;11.13;;;3.42;;
3068;SDS011;1545;51.728;8.796;2023-07-13T09:32:51;13.48;;;4.38;;
3068;SDS011;1545;51.728;8.796;2023-07-13T09:35:21;16.40;;;3.78;;
3068;SDS011;1545;51.728;8.796;2023-07-13T09:37:49;11.90;;;4.00;;
3068;SDS011;1545;51.728;8.796;2023-07-13T09:40:20;20.10;;;3.97;;
3068;SDS011;1545;51.728;8.796;2023-07-13T09:42:50;9.50;;;3.47;;
3068;SDS011;1545;51.728;8.796;2023-07-13T09:45:26;10.82;;;3.90;;
3068;SDS011;1545;51.728;8.796;2023-07-13T09:47:58;13.00;;;3.90;;
3068;SDS011;1545;51.728;8.796;2023-07-13T09:50:28;10.90;;;3.87;;
3068;SDS011;1545;51.728;8.796;2023-07-13T09:52:54;12.47;;;4.17;;
3068;SDS011;1545;51.728;8.796;2023-07-13T09:57:56;16.17;;;3.83;;
3068;SDS011;1545;51.728;8.796;2023-07-13T10:00:24;6.90;;;3.63;;
3068;SDS011;1545;51.728;8.796;2023-07-13T10:03:25;8.63;;;3.20;;
3068;SDS011;1545;51.728;8.796;2023-07-13T10:05:45;8.35;;;3.58;;
3068;SDS011;1545;51.728;8.796;2023-07-13T10:08:24;9.20;;;3.70;;
3068;SDS011;1545;51.728;8.796;2023-07-13T10:11:08;8.77;;;3.35;;
3068;SDS011;1545;51.728;8.796;2023-07-13T10:13:35;10.32;;;3.53;;
3068;SDS011;1545;51.728;8.796;2023-07-13T10:16:05;11.27;;;4.85;;
3068;SDS011;1545;51.728;8.796;2023-07-13T10:18:40;7.70;;;3.50;;
3068;SDS011;1545;51.728;8.796;2023-07-13T10:21:17;9.45;;;3.88;;
3068;SDS011;1545;51.728;8.796;2023-07-13T10:23:47;7.53;;;3.75;;
3068;SDS011;1545;51.728;8.796;2023-07-13T10:26:21;10.02;;;3.55;;
3068;SDS011;1545;51.728;8.796;2023-07-13T10:28:51;13.40;;;3.90;;
3068;SDS011;1545;51.728;8.796;2023-07-13T10:31:20;12.87;;;5.00;;
3068;SDS011;1545;51.728;8.796;2023-07-13T10:33:46;12.83;;;3.93;;
3068;SDS011;1545;51.728;8.796;2023-07-13T10:38:41;12.65;;;4.70;;
3068;SDS011;1545;51.728;8.796;2023-07-13T10:41:10;9.07;;;3.70;;
3068;SDS011;1545;51.728;8.796;2023-07-13T10:43:44;12.77;;;4.50;;
3068;SDS011;1545;51.728;8.796;2023-07-13T10:46:15;9.27;;;4.27;;
3068;SDS011;1545;51.728;8.796;2023-07-13T10:48:43;13.57;;;4.93;;
3068;SDS011;1545;51.728;8.796;2023-07-13T10:51:13;13.60;;;6.20;;
3068;SDS011;1545;51.728;8.796;2023-07-13T10:53:40;18.00;;;6.00;;
3068;SDS011;1545;51.728;8.796;2023-07-13T10:56:15;13.50;;;6.30;;
3068;SDS011;1545;51.728;8.796;2023-07-13T10:59:10;23.47;;;13.47;;
3068;SDS011;1545;51.728;8.796;2023-07-13T11:01:55;16.70;;;9.30;;
3068;SDS011;1545;51.728;8.796;2023-07-13T11:04:23;15.60;;;8.50;;
3068;SDS011;1545;51.728;8.796;2023-07-13T11:06:53;13.13;;;6.60;;
3068;SDS011;1545;51.728;8.796;2023-07-13T11:09:34;14.93;;;7.10;;
3068;SDS011;1545;51.728;8.796;2023-07-13T11:12:26;11.43;;;4.57;;
3068;SDS011;1545;51.728;8.796;2023-07-13T11:27:51;9.10;;;3.40;;
3068;SDS011;1545;51.728;8.796;2023-07-13T11:33:08;13.83;;;6.37;;
3068;SDS011;1545;51.728;8.796;2023-07-13T11:35:37;15.00;;;5.80;;
3068;SDS011;1545;51.728;8.796;2023-07-13T11:38:28;10.10;;;5.20;;
3068;SDS011;1545;51.728;8.796;2023-07-13T11:41:15;17.33;;;4.13;;
3068;SDS011;1545;51.728;8.796;2023-07-13T11:43:44;18.80;;;4.63;;
3068;SDS011;1545;51.728;8.796;2023-07-13T11:46:25;7.67;;;3.57;;
3068;SDS011;1545;51.728;8.796;2023-07-13T11:48:52;11.00;;;3.83;;
3068;SDS011;1545;51.728;8.796;2023-07-13T11:51:19;11.47;;;5.50;;
3068;SDS011;1545;51.728;8.796;2023-07-13T11:53:53;9.10;;;4.27;;
3068;SDS011;1545;51.728;8.796;2023-07-13T11:56:20;11.10;;;5.03;;
3068;SDS011;1545;51.728;8.796;2023-07-13T11:58:51;15.47;;;4.37;;
3068;SDS011;1545;51.728;8.796;2023-07-13T12:01:29;12.80;;;4.00;;
3068;SDS011;1545;51.728;8.796;2023-07-13T12:03:58;13.90;;;4.10;;
3068;SDS011;1545;51.728;8.796;2023-07-13T12:06:32;13.37;;;4.23;;
3068;SDS011;1545;51.728;8.796;2023-07-13T12:09:10;14.93;;;4.40;;
3068;SDS011;1545;51.728;8.796;2023-07-13T12:11:40;10.47;;;4.40;;
3068;SDS011;1545;51.728;8.796;2023-07-13T12:14:14;11.33;;;4.33;;
3068;SDS011;1545;51.728;8.796;2023-07-13T12:16:40;15.10;;;5.97;;
3068;SDS011;1545;51.728;8.796;2023-07-13T12:19:09;9.03;;;4.30;;
3068;SDS011;1545;51.728;8.796;2023-07-13T12:21:44;7.47;;;3.37;;
3068;SDS011;1545;51.728;8.796;2023-07-13T12:24:17;7.53;;;3.90;;
3068;SDS011;1545;51.728;8.796;2023-07-13T12:26:46;16.55;;;5.50;;
3068;SDS011;1545;51.728;8.796;2023-07-13T12:29:17;10.95;;;5.15;;
3068;SDS011;1545;51.728;8.796;2023-07-13T12:31:47;8.53;;;3.63;;
3068;SDS011;1545;51.728;8.796;2023-07-13T12:34:15;8.80;;;5.00;;
3068;SDS011;1545;51.728;8.796;2023-07-13T12:36:59;6.80;;;4.50;;
3068;SDS011;1545;51.728;8.796;2023-07-13T12:39:36;13.50;;;4.97;;
3068;SDS011;1545;51.728;8.796;2023-07-13T12:42:37;7.67;;;4.60;;
3068;SDS011;1545;51.728;8.796;2023-07-13T12:47:43;8.67;;;5.27;;
3068;SDS011;1545;51.728;8.796;2023-07-13T12:50:17;8.63;;;4.77;;
3068;SDS011;1545;51.728;8.796;2023-07-13T12:52:49;11.80;;;5.73;;
3068;SDS011;1545;51.728;8.796;2023-07-13T12:55:18;8.77;;;4.30;;
3068;SDS011;1545;51.728;8.796;2023-07-13T12:57:53;14.55;;;4.53;;
3068;SDS011;1545;51.728;8.796;2023-07-13T13:00:22;8.10;;;5.37;;
3068;SDS011;1545;51.728;8.796;2023-07-13T13:02:52;20.40;;;4.77;;
3068;SDS011;1545;51.728;8.796;2023-07-13T13:05:20;9.57;;;5.73;;
3068;SDS011;1545;51.728;8.796;2023-07-13T13:07:48;9.97;;;5.43;;
3068;SDS011;1545;51.728;8.796;2023-07-13T13:10:14;10.90;;;6.37;;
3068;SDS011;1545;51.728;8.796;2023-07-13T13:12:40;11.03;;;4.60;;
3068;SDS011;1545;51.728;8.796;2023-07-13T13:15:09;19.43;;;9.50;;
3068;SDS011;1545;51.728;8.796;2023-07-13T13:17:39;20.80;;;8.93;;
3068;SDS011;1545;51.728;8.796;2023-07-13T13:20:18;9.43;;;3.90;;
3068;SDS011;1545;51.728;8.796;2023-07-13T13:22:45;14.57;;;5.37;;
3068;SDS011;1545;51.728;8.796;2023-07-13T13:25:11;13.80;;;4.13;;
3068;SDS011;1545;51.728;8.796;2023-07-13T13:27:37;9.20;;;4.60;;
3068;SDS011;1545;51.728;8.796;2023-07-13T13:30:10;13.00;;;4.90;;
3068;SDS011;1545;51.728;8.796;2023-07-13T13:32:40;10.57;;;3.73;;
3068;SDS011;1545;51.728;8.796;2023-07-13T13:35:17;12.93;;;7.73;;
3068;SDS011;1545;51.728;8.796;2023-07-13T13:37:45;8.70;;;3.73;;
3068;SDS011;1545;51.728;8.796;2023-07-13T13:40:21;12.20;;;3.67;;
3068;SDS011;1545;51.728;8.796;2023-07-13T13:42:51;10.23;;;4.27;;
3068;SDS011;1545;51.728;8.796;2023-07-13T13:45:19;10.07;;;3.73;;
3068;SDS011;1545;51.728;8.796;2023-07-13T13:47:46;8.67;;;3.20;;
3068;SDS011;1545;51.728;8.796;2023-07-13T13:50:13;8.90;;;3.23;;
3068;SDS011;1545;51.728;8.796;2023-07-13T13:52:43;7.60;;;3.47;;
3068;SDS011;1545;51.728;8.796;2023-07-13T13:55:12;9.17;;;3.60;;
3068;SDS011;1545;51.728;8.796;2023-07-13T13:57:38;7.37;;;3.47;;
3068;SDS011;1545;51.728;8.796;2023-07-13T14:00:04;6.73;;;3.03;;
3068;SDS011;1545;51.728;8.796;2023-07-13T14:02:30;15.20;;;3.20;;
3068;SDS011;1545;51.728;8.796;2023-07-13T14:04:59;8.63;;;3.47;;
3068;SDS011;1545;51.728;8.796;2023-07-13T14:07:27;9.50;;;3.33;;
3068;SDS011;1545;51.728;8.796;2023-07-13T14:09:55;13.50;;;3.50;;
3068;SDS011;1545;51.728;8.796;2023-07-13T14:12:22;7.70;;;3.00;;
3068;SDS011;1545;51.728;8.796;2023-07-13T14:14:51;15.07;;;3.50;;
3068;SDS011;1545;51.728;8.796;2023-07-13T14:17:18;12.00;;;3.30;;
3068;SDS011;1545;51.728;8.796;2023-07-13T14:19:52;13.17;;;3.50;;
3068;SDS011;1545;51.728;8.796;2023-07-13T14:22:22;9.70;;;3.40;;
3068;SDS011;1545;51.728;8.796;2023-07-13T14:24:49;9.80;;;3.70;;
3068;SDS011;1545;51.728;8.796;2023-07-13T14:27:16;9.13;;;3.50;;
3068;SDS011;1545;51.728;8.796;2023-07-13T14:29:42;6.30;;;2.83;;
3068;SDS011;1545;51.728;8.796;2023-07-13T14:32:11;9.93;;;3.33;;
3068;SDS011;1545;51.728;8.796;2023-07-13T14:34:37;6.80;;;3.23;;
3068;SDS011;1545;51.728;8.796;2023-07-13T14:37:03;7.27;;;3.30;;
3068;SDS011;1545;51.728;8.796;2023-07-13T14:39:30;10.43;;;3.20;;
3068;SDS011;1545;51.728;8.796;2023-07-13T14:41:56;6.50;;;3.03;;
3068;SDS011;1545;51.728;8.796;2023-07-13T14:44:29;7.63;;;3.53;;
3068;SDS011;1545;51.728;8.796;2023-07-13T14:46:56;7.20;;;3.33;;
3068;SDS011;1545;51.728;8.796;2023-07-13T14:49:28;6.70;;;3.13;;
3068;SDS011;1545;51.728;8.796;2023-07-13T14:51:55;6.27;;;3.00;;
3068;SDS011;1545;51.728;8.796;2023-07-13T14:54:23;11.50;;;3.53;;
3068;SDS011;1545;51.728;8.796;2023-07-13T14:56:49;8.07;;;3.57;;
3068;SDS011;1545;51.728;8.796;2023-07-13T14:59:15;5.37;;;3.17;;
3068;SDS011;1545;51.728;8.796;2023-07-13T15:01:41;9.70;;;3.20;;
3068;SDS011;1545;51.728;8.796;2023-07-13T15:04:06;6.40;;;3.20;;
3068;SDS011;1545;51.728;8.796;2023-07-13T15:06:50;15.03;;;4.30;;
3068;SDS011;1545;51.728;8.796;2023-07-13T15:09:21;9.93;;;5.00;;
3068;SDS011;1545;51.728;8.796;2023-07-13T15:11:49;13.97;;;5.07;;
3068;SDS011;1545;51.728;8.796;2023-07-13T15:14:14;23.50;;;5.27;;
3068;SDS011;1545;51.728;8.796;2023-07-13T15:16:40;19.80;;;5.60;;
3068;SDS011;1545;51.728;8.796;2023-07-13T15:19:08;14.57;;;5.30;;
3068;SDS011;1545;51.728;8.796;2023-07-13T15:21:35;12.03;;;5.37;;
3068;SDS011;1545;51.728;8.796;2023-07-13T15:24:01;10.87;;;4.97;;
3068;SDS011;1545;51.728;8.796;2023-07-13T15:26:27;22.47;;;6.40;;
3068;SDS011;1545;51.728;8.796;2023-07-13T15:28:53;13.20;;;5.67;;
3068;SDS011;1545;51.728;8.796;2023-07-13T15:31:19;15.17;;;5.80;;
3068;SDS011;1545;51.728;8.796;2023-07-13T15:33:47;9.67;;;5.53;;
3068;SDS011;1545;51.728;8.796;2023-07-13T15:36:15;15.10;;;5.67;;
3068;SDS011;1545;51.728;8.796;2023-07-13T15:38:42;15.10;;;6.07;;
3068;SDS011;1545;51.728;8.796;2023-07-13T15:41:19;12.47;;;6.17;;
3068;SDS011;1545;51.728;8.796;2023-07-13T15:43:48;8.67;;;5.80;;
3068;SDS011;1545;51.728;8.796;2023-07-13T15:46:16;11.37;;;7.23;;
3068;SDS011;1545;51.728;8.796;2023-07-13T15:48:46;12.83;;;7.23;;
3068;SDS011;1545;51.728;8.796;2023-07-13T15:51:15;12.60;;;6.90;;